Time;durP1;ratioP1;P1;durP2;ratioP2;P2;SDS_P1;SDS_P2;PMS_P1;PMS_P2;Temp;Humidity;BMP_temperature;BMP_pressure;BME280_temperature;BME280_humidity;BME280_pressure;Samples;Min_cycle;Max_cycle;Signal;HPM_P1;HPM_P2
2023/01/26 00:01:00;;;;;;;;;;;;;;;-2.37;100.00;102453.69;5052428;28;19912;-44
2023/01/26 00:03:26;;;;;;;;;;;;;;;-2.38;100.00;102459.25;5051516;28;19963;-43
2023/01/26 00:05:51;;;;;;;;;;;;;;;-2.37;100.00;102464.53;5051574;28;19917;-43
2023/01/26 00:08:16;;;;;;;;;;;;;;;-2.35;100.00;102453.47;5051963;28;19916;-43
2023/01/26 00:10:48;;;;;;;;;;;;;;;-2.35;100.00;102448.06;5051903;28;19974;-45
2023/01/26 00:13:14;;;;;;;;;;;;;;;-2.37;100.00;102441.97;5051349;28;19924;-43
2023/01/26 00:15:40;;;;;;;;;;;;;;;-2.38;100.00;102434.84;5050044;28;20225;-49
2023/01/26 00:18:06;;;;;;;;;;;;;;;-2.40;100.00;102436.91;5051473;28;19912;-45
2023/01/26 00:20:31;;;;;;;;;;;;;;;-2.41;100.00;102436.06;5051340;28;20312;-46
2023/01/26 00:22:56;;;;;;;;;;;;;;;-2.41;100.00;102432.53;5050708;28;19928;-43
2023/01/26 00:25:21;;;;;;;;;;;;;;;-2.42;100.00;102437.09;5050416;28;19917;-44
2023/01/26 00:27:46;;;;;;;;;;;;;;;-2.45;100.00;102434.72;5050912;28;19983;-43
2023/01/26 00:30:12;;;;;;;;;;;;;;;-2.49;100.00;102433.41;5051263;28;19916;-45
2023/01/26 00:32:37;;;;;;;;;;;;;;;-2.47;100.00;102430.53;5051870;28;19916;-44
2023/01/26 00:35:03;;;;;;;;;;;;;;;-2.42;100.00;102423.53;5051487;28;19958;-45
2023/01/26 00:37:28;;;;;;;;;;;;;;;-2.44;100.00;102416.63;5046933;28;19913;-44
2023/01/26 00:39:54;;;;;;;;;;;;;;;-2.44;100.00;102422.88;5051370;28;20330;-43
2023/01/26 00:42:20;;;;;;;;;;;;;;;-2.41;100.00;102418.97;5051554;28;19913;-46
2023/01/26 00:44:45;;;;;;;;;;;;;;;-2.41;100.00;102425.22;5051453;28;19939;-46
2023/01/26 00:47:11;;;;;;;;;;;;;;;-2.36;100.00;102413.84;5051448;28;20360;-47
2023/01/26 00:49:37;;;;;;;;;;;;;;;-2.36;100.00;102413.84;5051620;28;19912;-45
2023/01/26 00:52:03;;;;;;;;;;;;;;;-2.35;100.00;102410.94;5049642;28;19923;-46
2023/01/26 00:54:28;;;;;;;;;;;;;;;-2.32;100.00;102409.75;5050781;28;20352;-44
2023/01/26 00:56:54;;;;;;;;;;;;;;;-2.31;100.00;102408.72;5049526;28;19924;-45
2023/01/26 00:59:19;;;;;;;;;;;;;;;-2.28;100.00;102404.81;5049896;28;19913;-43
2023/01/26 01:01:44;;;;;;;;;;;;;;;-2.32;100.00;102395.34;5051210;28;19912;-46
2023/01/26 01:04:10;;;;;;;;;;;;;;;-2.31;100.00;102399.75;5051435;28;19913;-45
2023/01/26 01:06:35;;;;;;;;;;;;;;;-2.34;100.00;102400.97;5051286;28;19919;-44
2023/01/26 01:09:01;;;;;;;;;;;;;;;-2.35;100.00;102391.97;5051369;28;19939;-46
2023/01/26 01:11:26;;;;;;;;;;;;;;;-2.30;100.00;102390.59;5050868;28;19939;-44
2023/01/26 01:13:51;;;;;;;;;;;;;;;-2.30;100.00;102383.28;5051348;28;19925;-45
2023/01/26 01:16:17;;;;;;;;;;;;;;;-2.27;100.00;102391.06;5051713;28;20015;-45
2023/01/26 01:18:42;;;;;;;;;;;;;;;-2.26;100.00;102392.75;5051572;28;19964;-44
2023/01/26 01:21:12;;;;;;;;;;;;;;;-2.30;100.00;102396.84;5051747;28;20003;-47
2023/01/26 01:23:37;;;;;;;;;;;;;;;-2.32;100.00;102395.34;5050760;28;19913;-43
2023/01/26 01:26:03;;;;;;;;;;;;;;;-2.30;100.00;102396.00;5051071;28;19927;-43
2023/01/26 01:28:28;;;;;;;;;;;;;;;-2.34;100.00;102382.00;5050410;28;20295;-43
2023/01/26 01:30:53;;;;;;;;;;;;;;;-2.30;100.00;102379.75;5047850;28;19987;-44
2023/01/26 01:33:18;;;;;;;;;;;;;;;-2.33;100.00;102382.81;5045345;28;19923;-44
2023/01/26 01:35:44;;;;;;;;;;;;;;;-2.32;100.00;102390.78;5050580;28;20427;-45
2023/01/26 01:38:09;;;;;;;;;;;;;;;-2.32;100.00;102385.38;5050672;28;19916;-48
2023/01/26 01:40:34;;;;;;;;;;;;;;;-2.31;100.00;102388.91;5049928;28;19916;-45
2023/01/26 01:43:00;;;;;;;;;;;;;;;-2.30;100.00;102383.28;5050683;28;19916;-44
2023/01/26 01:45:25;;;;;;;;;;;;;;;-2.30;100.00;102385.16;5048926;28;19912;-44
2023/01/26 01:47:51;;;;;;;;;;;;;;;-2.27;100.00;102387.53;5051003;28;19919;-44
2023/01/26 01:50:17;;;;;;;;;;;;;;;-2.22;100.00;102387.81;5049277;28;19913;-44
2023/01/26 01:52:42;;;;;;;;;;;;;;;-2.21;100.00;102394.94;5050911;28;20025;-45
2023/01/26 01:55:09;;;;;;;;;;;;;;;-2.20;100.00;102394.72;5050335;28;20418;-45
2023/01/26 01:57:44;;;;;;;;;;;;;;;-2.17;100.00;102384.56;5052717;28;19917;-43
2023/01/26 02:00:11;;;;;;;;;;;;;;;-2.19;100.00;102392.88;5054396;28;19913;-44
2023/01/26 02:02:37;;;;;;;;;;;;;;;-2.22;100.00;102385.09;5054098;28;19919;-42
2023/01/26 02:05:25;;;;;;;;;;;;;;;-2.24;100.00;102389.84;5053757;28;19913;-45
2023/01/26 02:07:50;;;;;;;;;;;;;;;-2.24;100.00;102389.84;5050524;28;19970;-44
2023/01/26 02:10:19;;;;;;;;;;;;;;;-2.21;100.00;102389.50;5053824;28;19962;-46
2023/01/26 02:12:51;;;;;;;;;;;;;;;-2.22;100.00;102383.22;5053776;28;19916;-47
2023/01/26 02:15:16;;;;;;;;;;;;;;;-2.23;100.00;102373.44;5052542;28;19920;-43
2023/01/26 02:17:41;;;;;;;;;;;;;;;-2.22;100.00;102375.09;5053902;28;20297;-44
2023/01/26 02:20:12;;;;;;;;;;;;;;;-2.21;100.00;102359.69;5054108;28;19943;-44
2023/01/26 02:22:44;;;;;;;;;;;;;;;-2.20;100.00;102359.47;5053242;28;19913;-45
2023/01/26 02:25:19;;;;;;;;;;;;;;;-2.16;100.00;102359.97;5054356;28;20383;-45
2023/01/26 02:27:44;;;;;;;;;;;;;;;-2.14;100.00;102357.91;5047767;28;19946;-47
2023/01/26 02:30:11;;;;;;;;;;;;;;;-2.13;100.00;102364.19;5053683;28;19912;-47
2023/01/26 02:32:36;;;;;;;;;;;;;;;-2.14;100.00;102355.19;5053620;28;20367;-47
2023/01/26 02:35:02;;;;;;;;;;;;;;;-2.14;100.00;102365.22;5053618;28;19919;-46
2023/01/26 02:37:27;;;;;;;;;;;;;;;-2.12;100.00;102357.72;5053553;28;19913;-48
2023/01/26 02:39:55;;;;;;;;;;;;;;;-2.14;100.00;102360.63;5053433;28;19913;-49
2023/01/26 02:42:40;;;;;;;;;;;;;;;-2.13;100.00;102361.47;5052980;28;19913;-47
2023/01/26 02:45:06;;;;;;;;;;;;;;;-2.14;100.00;102359.78;5053200;28;19920;-44
2023/01/26 02:47:32;;;;;;;;;;;;;;;-2.12;100.00;102355.88;5053518;28;19924;-44
2023/01/26 02:49:59;;;;;;;;;;;;;;;-2.09;100.00;102351.94;5053563;28;20310;-44
2023/01/26 02:52:25;;;;;;;;;;;;;;;-2.07;100.00;102349.88;5053825;28;19923;-45
2023/01/26 02:57:35;;;;;;;;;;;;;;;-2.04;100.00;102349.53;5053215;28;20000;-44
2023/01/26 03:00:03;;;;;;;;;;;;;;;-2.06;100.00;102354.28;5053030;28;20015;-44
2023/01/26 03:02:28;;;;;;;;;;;;;;;-2.05;100.00;102345.13;5052804;28;19916;-44
2023/01/26 03:04:53;;;;;;;;;;;;;;;-2.02;100.00;102349.34;5052904;28;19923;-48
2023/01/26 03:07:18;;;;;;;;;;;;;;;-2.02;100.00;102343.91;5052176;28;19970;-46
2023/01/26 03:09:43;;;;;;;;;;;;;;;-2.00;100.00;102344.56;5052133;28;19975;-45
2023/01/26 03:12:09;;;;;;;;;;;;;;;-1.99;100.00;102347.09;5051064;28;19923;-47
2023/01/26 03:14:34;;;;;;;;;;;;;;;-1.95;100.00;102347.56;5051160;28;19970;-46
2023/01/26 03:16:59;;;;;;;;;;;;;;;-2.01;100.00;102354.56;5051877;28;19990;-44
2023/01/26 03:27:47;;;;;;;;;;;;;;;-1.98;100.00;102347.94;5052247;28;19920;-43
2023/01/26 03:30:15;;;;;;;;;;;;;;;-1.97;100.00;102349.59;5051625;28;20284;-44
2023/01/26 03:32:40;;;;;;;;;;;;;;;-1.98;100.00;102339.81;5052576;28;19920;-45
2023/01/26 03:35:06;;;;;;;;;;;;;;;-1.97;100.00;102344.19;5052307;28;19913;-45
2023/01/26 03:37:35;;;;;;;;;;;;;;;-1.90;100.00;102337.84;5052376;28;19935;-44
2023/01/26 03:56:31;;;;;;;;;;;;;;;-1.84;100.00;102335.44;5051481;28;19935;-43
2023/01/26 03:59:06;;;;;;;;;;;;;;;-1.81;100.00;102329.59;5050216;28;19916;-43
2023/01/26 04:01:31;;;;;;;;;;;;;;;-1.76;100.00;102336.16;5051235;28;19916;-46
2023/01/26 04:09:26;;;;;;;;;;;;;;;-1.69;100.00;102322.69;5051429;28;19919;-47
2023/01/26 04:11:51;;;;;;;;;;;;;;;-1.69;100.00;102333.53;5049230;28;20039;-44
2023/01/26 04:22:29;;;;;;;;;;;;;;;-1.61;100.00;102329.91;5051622;28;19921;-44
2023/01/26 04:24:55;;;;;;;;;;;;;;;-1.61;100.00;102328.03;5050047;28;19917;-45
2023/01/26 04:27:21;;;;;;;;;;;;;;;-1.61;100.00;102329.91;5051146;28;20257;-44
2023/01/26 04:29:46;;;;;;;;;;;;;;;-1.63;100.00;102324.66;5051619;28;20363;-44
2023/01/26 04:32:11;;;;;;;;;;;;;;;-1.61;100.00;102321.75;5051441;28;19912;-45
2023/01/26 04:34:36;;;;;;;;;;;;;;;-1.62;100.00;102325.50;5051361;28;20022;-46
2023/01/26 04:37:02;;;;;;;;;;;;;;;-1.60;100.00;102329.72;5051054;28;20373;-48
2023/01/26 04:39:27;;;;;;;;;;;;;;;-1.62;100.00;102329.03;5051582;28;19948;-46
2023/01/26 04:41:52;;;;;;;;;;;;;;;-1.60;100.00;102329.72;5051246;28;19919;-44
2023/01/26 04:44:17;;;;;;;;;;;;;;;-1.59;100.00;102327.81;5050950;28;19929;-44
2023/01/26 04:46:43;;;;;;;;;;;;;;;-1.56;100.00;102332.88;5050854;28;19923;-44
2023/01/26 04:49:08;;;;;;;;;;;;;;;-1.55;100.00;102325.56;5050554;28;20383;-45
2023/01/26 04:51:33;;;;;;;;;;;;;;;-1.53;100.00;102323.50;5050924;28;20387;-44
2023/01/26 04:53:58;;;;;;;;;;;;;;;-1.52;100.00;102331.50;5050778;28;20011;-44
2023/01/26 04:56:25;;;;;;;;;;;;;;;-1.51;100.00;102325.00;5050060;28;20290;-46
2023/01/26 04:58:51;;;;;;;;;;;;;;;-1.48;100.00;102324.63;5050830;28;19912;-45
2023/01/26 05:01:16;;;;;;;;;;;;;;;-1.46;100.00;102325.28;5050500;28;20368;-45
2023/01/26 05:03:41;;;;;;;;;;;;;;;-1.45;100.00;102316.13;5050043;28;20295;-44
2023/01/26 05:06:06;;;;;;;;;;;;;;;-1.46;100.00;102328.00;5050992;28;20352;-45
2023/01/26 05:08:31;;;;;;;;;;;;;;;-1.44;100.00;102319.66;5050907;28;19917;-46
2023/01/26 05:10:57;;;;;;;;;;;;;;;-1.44;100.00;102323.25;5050057;28;19959;-48
2023/01/26 05:13:22;;;;;;;;;;;;;;;-1.45;100.00;102318.84;5050406;28;19999;-47
2023/01/26 05:15:47;;;;;;;;;;;;;;;-1.45;100.00;102313.41;5042444;28;19912;-46
2023/01/26 05:18:13;;;;;;;;;;;;;;;-1.45;100.00;102309.84;5050213;28;19987;-45
2023/01/26 05:20:38;;;;;;;;;;;;;;;-1.43;100.00;102324.06;5050271;28;19963;-45
2023/01/26 05:23:03;;;;;;;;;;;;;;;-1.41;100.00;102313.88;5050571;28;20316;-45
2023/01/26 05:25:29;;;;;;;;;;;;;;;-1.41;100.00;102319.28;5050528;28;19912;-43
2023/01/26 05:27:54;;;;;;;;;;;;;;;-1.41;100.00;102322.00;5050220;28;19994;-46
2023/01/26 05:30:19;;;;;;;;;;;;;;;-1.39;100.00;102319.97;5050885;28;20421;-44
2023/01/26 05:32:44;;;;;;;;;;;;;;;-1.37;100.00;102322.47;5054626;28;19928;-44
2023/01/26 05:35:10;;;;;;;;;;;;;;;-1.34;100.00;102327.53;5054515;28;19919;-45
2023/01/26 05:37:35;;;;;;;;;;;;;;;-1.34;100.00;102322.94;5054771;28;19913;-43
2023/01/26 05:40:01;;;;;;;;;;;;;;;-1.33;100.00;102321.06;5054491;28;19920;-44
2023/01/26 05:42:26;;;;;;;;;;;;;;;-1.33;100.00;102321.91;5054335;28;20383;-45
2023/01/26 05:44:51;;;;;;;;;;;;;;;-1.33;100.00;102318.34;5054182;28;19913;-47
2023/01/26 05:47:17;;;;;;;;;;;;;;;-1.33;100.00;102321.91;5053967;28;20433;-43
2023/01/26 05:49:44;;;;;;;;;;;;;;;-1.30;100.00;102320.66;5053848;28;19959;-44
2023/01/26 05:52:10;;;;;;;;;;;;;;;-1.30;100.00;102315.25;5054622;28;19919;-44
2023/01/26 05:54:35;;;;;;;;;;;;;;;-1.31;100.00;102316.28;5054812;28;19912;-45
2023/01/26 05:57:00;;;;;;;;;;;;;;;-1.30;100.00;102323.38;5053899;28;19919;-45
2023/01/26 05:59:25;;;;;;;;;;;;;;;-1.31;100.00;102324.41;5053784;28;20007;-44
2023/01/26 06:01:51;;;;;;;;;;;;;;;-1.30;100.00;102317.97;5054350;28;20033;-43
2023/01/26 06:04:16;;;;;;;;;;;;;;;-1.30;100.00;102321.53;5053349;28;20364;-45
2023/01/26 06:06:41;;;;;;;;;;;;;;;-1.29;100.00;102322.34;5053858;28;19913;-48
2023/01/26 06:09:06;;;;;;;;;;;;;;;-1.30;100.00;102326.97;5053499;28;19913;-51
2023/01/26 06:11:32;;;;;;;;;;;;;;;-1.26;100.00;102333.69;5047229;28;19912;-44
2023/01/26 06:13:57;;;;;;;;;;;;;;;-1.24;100.00;102338.09;5054078;28;19916;-49
2023/01/26 06:16:22;;;;;;;;;;;;;;;-1.24;100.00;102338.94;5053781;28;20350;-44
2023/01/26 06:18:48;;;;;;;;;;;;;;;-1.23;100.00;102337.06;5053279;28;20427;-43
2023/01/26 06:21:14;;;;;;;;;;;;;;;-1.21;100.00;102340.44;5053543;28;20497;-42
2023/01/26 06:23:39;;;;;;;;;;;;;;;-1.21;100.00;102335.00;5053751;28;19999;-46
2023/01/26 06:26:05;;;;;;;;;;;;;;;-1.19;100.00;102333.75;5053635;28;19936;-45
2023/01/26 06:28:30;;;;;;;;;;;;;;;-1.19;100.00;102339.19;5053505;28;20334;-45
2023/01/26 06:30:59;;;;;;;;;;;;;;;-1.16;100.00;102336.09;5053347;28;19923;-45
2023/01/26 06:33:25;;;;;;;;;;;;;;;-1.17;100.00;102339.84;5051896;28;19920;-44
2023/01/26 06:35:51;;;;;;;;;;;;;;;-1.19;100.00;102336.47;5051992;28;19990;-46
2023/01/26 06:38:16;;;;;;;;;;;;;;;-1.17;100.00;102341.72;5052410;28;19916;-48
2023/01/26 06:40:41;;;;;;;;;;;;;;;-1.16;100.00;102344.25;5051652;28;20375;-44
2023/01/26 06:43:06;;;;;;;;;;;;;;;-1.17;100.00;102347.16;5050267;28;20339;-47
2023/01/26 06:45:32;;;;;;;;;;;;;;;-1.15;100.00;102347.81;5051573;28;19913;-46
2023/01/26 06:47:57;;;;;;;;;;;;;;;-1.12;100.00;102348.25;5051726;28;19912;-45
2023/01/26 06:50:25;;;;;;;;;;;;;;;-1.17;100.00;102336.28;5051728;28;19959;-46
2023/01/26 06:52:53;;;;;;;;;;;;;;;-1.12;100.00;102353.69;5051799;28;19964;-48
2023/01/26 06:55:27;;;;;;;;;;;;;;;-1.13;100.00;102357.44;5051167;28;19990;-47
2023/01/26 06:57:52;;;;;;;;;;;;;;;-1.17;100.00;102345.28;5051482;28;19986;-47
2023/01/26 07:00:18;;;;;;;;;;;;;;;-1.15;100.00;102347.81;5051129;28;20352;-47
2023/01/26 07:02:43;;;;;;;;;;;;;;;-1.12;100.00;102345.53;5049943;28;19913;-48
2023/01/26 07:05:08;;;;;;;;;;;;;;;-1.07;100.00;102349.56;5051417;28;20372;-47
2023/01/26 07:07:33;;;;;;;;;;;;;;;-1.05;100.00;102355.66;5044668;28;20286;-46
2023/01/26 07:09:59;;;;;;;;;;;;;;;-1.06;100.00;102353.97;5051740;28;19913;-47
2023/01/26 07:12:24;;;;;;;;;;;;;;;-1.04;100.00;102355.47;5052596;28;20326;-47
2023/01/26 07:14:50;;;;;;;;;;;;;;;-1.03;100.00;102359.88;5053297;28;19924;-45
2023/01/26 07:17:16;;;;;;;;;;;;;;;-1.04;100.00;102360.06;5052454;28;19913;-45
2023/01/26 07:19:41;;;;;;;;;;;;;;;-1.06;100.00;102356.69;5051340;28;20383;-46
2023/01/26 07:22:06;;;;;;;;;;;;;;;-1.00;100.00;102358.63;5049093;28;20322;-45
2023/01/26 07:24:31;;;;;;;;;;;;;;;-0.99;100.00;102361.16;5048791;28;20005;-48
2023/01/26 07:26:57;;;;;;;;;;;;;;;-1.00;100.00;102359.50;5048950;28;19939;-47
2023/01/26 07:29:22;;;;;;;;;;;;;;;-1.02;100.00;102361.56;5049295;28;19992;-46
2023/01/26 07:31:48;;;;;;;;;;;;;;;-0.98;100.00;102354.69;5048062;28;19982;-45
2023/01/26 07:34:13;;;;;;;;;;;;;;;-0.92;100.00;102363.94;5051189;28;20306;-44
2023/01/26 07:36:38;;;;;;;;;;;;;;;-0.90;100.00;102358.34;5052297;28;19916;-46
2023/01/26 07:39:05;;;;;;;;;;;;;;;-0.92;100.00;102358.50;5053455;28;19967;-44
2023/01/26 07:41:30;;;;;;;;;;;;;;;-0.94;100.00;102363.28;5053044;28;19917;-50
2023/01/26 07:43:55;;;;;;;;;;;;;;;-0.98;100.00;102362.84;5052762;28;20334;-48
2023/01/26 07:46:21;;;;;;;;;;;;;;;-1.03;100.00;102359.88;5052811;28;19919;-50
2023/01/26 07:48:46;;;;;;;;;;;;;;;-1.05;100.00;102372.78;5052482;28;20335;-48
2023/01/26 07:51:11;;;;;;;;;;;;;;;-1.10;100.00;102372.53;5042412;28;20004;-47
2023/01/26 07:53:38;;;;;;;;;;;;;;;-1.10;100.00;102372.53;5030583;28;20330;-49
2023/01/26 07:56:11;;;;;;;;;;;;;;;-1.09;100.00;102376.94;5030550;28;19921;-46
2023/01/26 07:58:36;;;;;;;;;;;;;;;-1.05;100.00;102377.41;5030124;28;19917;-47
2023/01/26 08:01:05;;;;;;;;;;;;;;;-1.02;100.00;102377.84;5030453;28;19917;-45
2023/01/26 08:03:31;;;;;;;;;;;;;;;-1.01;100.00;102384.13;5030111;28;20392;-51
2023/01/26 08:05:56;;;;;;;;;;;;;;;-1.01;100.00;102387.69;5030420;28;19917;-48
2023/01/26 08:08:21;;;;;;;;;;;;;;;-0.95;100.00;102384.19;5030438;28;19913;-48
2023/01/26 08:10:46;;;;;;;;;;;;;;;-0.94;100.00;102390.47;5029898;28;19940;-47
2023/01/26 08:13:12;;;;;;;;;;;;;;;-0.99;100.00;102385.59;5030124;28;19928;-47
2023/01/26 08:15:37;;;;;;;;;;;;;;;-1.00;100.00;102383.94;5049675;28;19917;-47
2023/01/26 08:18:03;;;;;;;;;;;;;;;-1.00;100.00;102393.94;5051996;28;19913;-45
2023/01/26 08:20:29;;;;;;;;;;;;;;;-1.02;100.00;102391.44;5051869;28;19918;-45
2023/01/26 08:22:54;;;;;;;;;;;;;;;-0.92;100.00;102395.72;5050598;28;19920;-46
2023/01/26 08:25:19;;;;;;;;;;;;;;;-0.96;100.00;102396.09;5050045;28;19916;-48
2023/01/26 08:27:45;;;;;;;;;;;;;;;-0.93;100.00;102385.88;5051638;28;19916;-44
2023/01/26 08:30:11;;;;;;;;;;;;;;;-0.89;100.00;102385.31;5051759;28;19917;-44
2023/01/26 08:32:36;;;;;;;;;;;;;;;-0.84;100.00;102396.44;5049170;28;19919;-47
2023/01/26 08:35:02;;;;;;;;;;;;;;;-0.87;100.00;102395.97;5050014;28;19916;-48
2023/01/26 08:37:27;;;;;;;;;;;;;;;-0.90;100.00;102404.53;5050148;28;19946;-47
2023/01/26 08:39:52;;;;;;;;;;;;;;;-0.90;100.00;102396.38;5050021;28;20082;-48
2023/01/26 08:42:17;;;;;;;;;;;;;;;-0.87;100.00;102402.28;5049758;28;19921;-47
2023/01/26 08:44:42;;;;;;;;;;;;;;;-0.85;100.00;102407.50;5050096;28;20284;-46
2023/01/26 08:47:08;;;;;;;;;;;;;;;-0.87;100.00;102398.69;5050328;28;20324;-46
2023/01/26 08:49:33;;;;;;;;;;;;;;;-0.87;100.00;102399.56;5051327;28;19917;-52
2023/01/26 08:51:58;;;;;;;;;;;;;;;-0.83;100.00;102403.56;5051501;28;19924;-49
2023/01/26 08:54:23;;;;;;;;;;;;;;;-0.81;100.00;102406.94;5051336;28;19916;-46
2023/01/26 08:56:48;;;;;;;;;;;;;;;-0.82;100.00;102407.97;5051710;28;20007;-47
2023/01/26 08:59:14;;;;;;;;;;;;;;;-0.80;100.00;102411.34;5051583;28;19928;-50
2023/01/26 09:01:39;;;;;;;;;;;;;;;-0.73;100.00;102405.13;5051349;28;20425;-48
2023/01/26 09:04:04;;;;;;;;;;;;;;;-0.67;100.00;102399.78;5051383;28;19984;-48
2023/01/26 09:06:31;;;;;;;;;;;;;;;-0.59;100.00;102403.41;5050729;28;19923;-51
2023/01/26 09:08:57;;;;;;;;;;;;;;;-0.56;100.00;102400.31;5050554;28;19920;-47
2023/01/26 09:11:22;;;;;;;;;;;;;;;-0.54;100.00;102399.06;5050258;28;19939;-48
2023/01/26 09:13:55;;;;;;;;;;;;;;;-0.44;100.00;102401.47;5050688;28;20375;-45
2023/01/26 09:16:21;;;;;;;;;;;;;;;-0.35;100.00;102403.03;5049901;28;19920;-48
2023/01/26 09:18:50;;;;;;;;;;;;;;;-0.30;100.00;102399.72;5051299;28;19919;-44
2023/01/26 09:21:15;;;;;;;;;;;;;;;-0.26;100.00;102398.28;5051201;28;20006;-46
2023/01/26 09:23:41;;;;;;;;;;;;;;;-0.23;100.00;102411.50;5051052;28;19924;-47
2023/01/26 09:26:06;;;;;;;;;;;;;;;-0.22;100.00;102413.19;5051061;28;20372;-47
2023/01/26 09:28:31;;;;;;;;;;;;;;;-0.25;100.00;102407.31;5051169;28;19913;-48
2023/01/26 09:30:56;;;;;;;;;;;;;;;-0.24;100.00;102406.28;5051081;28;19914;-47
2023/01/26 09:33:22;;;;;;;;;;;;;;;-0.26;100.00;102413.78;5051176;28;19924;-47
2023/01/26 09:35:47;;;;;;;;;;;;;;;-0.25;100.00;102415.47;5051144;28;19924;-47
2023/01/26 09:38:13;;;;;;;;;;;;;;;-0.33;100.00;102419.97;5050992;28;20349;-49
2023/01/26 09:41:04;;;;;;;;;;;;;;;-0.42;100.00;102425.75;5051233;28;19917;-47
2023/01/26 09:43:32;;;;;;;;;;;;;;;-0.46;100.00;102422.56;5051149;28;19912;-46
2023/01/26 09:46:04;;;;;;;;;;;;;;;-0.47;100.00;102412.72;5050903;28;20350;-47
2023/01/26 09:48:36;;;;;;;;;;;;;;;-0.43;100.00;102419.47;5050746;28;19969;-46
2023/01/26 09:51:07;;;;;;;;;;;;;;;-0.39;100.00;102412.59;5050827;28;19913;-48
2023/01/26 09:53:39;;;;;;;;;;;;;;;-0.29;100.00;102414.16;5050799;28;19963;-47
2023/01/26 09:56:04;;;;;;;;;;;;;;;-0.24;100.00;102409.81;5050878;28;20031;-46
2023/01/26 09:58:35;;;;;;;;;;;;;;;-0.19;100.00;102414.66;5050780;28;20380;-48
2023/01/26 10:01:01;;;;;;;;;;;;;;;-0.15;100.00;102415.97;5050698;28;19968;-49
2023/01/26 10:03:34;;;;;;;;;;;;;;;-0.08;100.00;102416.00;5050968;28;19965;-55
2023/01/26 10:06:05;;;;;;;;;;;;;;;-0.05;100.00;102419.19;5050882;28;19970;-50
2023/01/26 10:08:30;;;;;;;;;;;;;;;-0.02;100.00;102416.06;5050813;28;19920;-47
2023/01/26 10:11:00;;;;;;;;;;;;;;;0.05;100.00;102410.69;5050843;28;19913;-45
2023/01/26 10:13:26;;;;;;;;;;;;;;;0.05;100.00;102418.03;5050554;28;19928;-48
2023/01/26 10:16:00;;;;;;;;;;;;;;;0.05;100.00;102407.97;5050659;28;19913;-46
2023/01/26 10:18:34;;;;;;;;;;;;;;;0.02;100.00;102413.81;5053013;28;19917;-48
2023/01/26 10:21:01;;;;;;;;;;;;;;;0.04;100.00;102411.72;5054568;28;20074;-50
2023/01/26 10:23:30;;;;;;;;;;;;;;;0.05;100.00;102402.53;5054150;28;19920;-48
2023/01/26 10:26:14;;;;;;;;;;;;;;;0.10;100.00;102402.75;5054162;28;20034;-46
2023/01/26 10:28:44;;;;;;;;;;;;;;;0.12;100.00;102405.31;5054426;28;19916;-48
2023/01/26 10:31:19;;;;;;;;;;;;;;;0.17;100.00;102410.16;5054147;28;19912;-48
2023/01/26 10:33:50;;;;;;;;;;;;;;;0.18;100.00;102407.22;5053672;28;19921;-47
2023/01/26 10:36:15;;;;;;;;;;;;;;;0.21;100.00;102409.56;5053345;28;19920;-50
2023/01/26 10:38:42;;;;;;;;;;;;;;;0.27;100.00;102425.09;5053935;28;19920;-45
2023/01/26 10:41:15;;;;;;;;;;;;;;;0.32;100.00;102419.06;5054405;28;19912;-48
2023/01/26 10:43:41;;;;;;;;;;;;;;;0.41;100.00;102417.88;5054129;28;20003;-45
2023/01/26 10:46:21;;;;;;;;;;;;;;;0.46;100.00;102425.44;5053985;28;20066;-46
2023/01/26 10:48:54;;;;;;;;;;;;;;;0.48;100.00;102426.09;5054022;28;19912;-48
2023/01/26 10:51:24;;;;;;;;;;;;;;;0.47;100.00;102422.50;5053759;28;19928;-52
2023/01/26 10:53:49;;;;;;;;;;;;;;;0.55;100.00;102418.78;5053882;28;19935;-50
2023/01/26 10:56:15;;;;;;;;;;;;;;;0.66;100.00;102420.13;5032147;28;20371;-51
2023/01/26 10:58:41;;;;;;;;;;;;;;;0.83;100.00;102422.53;5046963;28;19917;-50
2023/01/26 11:01:11;;;;;;;;;;;;;;;0.86;100.00;102408.47;5030006;28;19923;-48
2023/01/26 11:03:37;;;;;;;;;;;;;;;0.93;100.00;102412.91;5030945;28;19917;-50
2023/01/26 11:06:06;;;;;;;;;;;;;;;1.02;100.00;102407.28;5031631;28;20015;-48
2023/01/26 11:08:33;;;;;;;;;;;;;;;1.11;100.00;102414.25;5046876;28;19917;-45
2023/01/26 11:10:58;;;;;;;;;;;;;;;1.14;100.00;102411.13;5031781;28;19913;-46
2023/01/26 11:13:23;;;;;;;;;;;;;;;1.15;100.00;102407.34;5031322;28;20358;-48
2023/01/26 11:15:51;;;;;;;;;;;;;;;1.19;100.00;102403.16;5031583;28;20420;-47
2023/01/26 11:18:16;;;;;;;;;;;;;;;1.29;100.00;102400.06;5031528;28;19917;-47
2023/01/26 11:20:50;;;;;;;;;;;;;;;1.39;100.00;102405.09;5031489;28;19924;-46
2023/01/26 11:23:21;;;;;;;;;;;;;;;1.53;100.00;102414.16;5031594;28;19972;-50
2023/01/26 11:26:05;;;;;;;;;;;;;;;1.56;100.00;102400.94;5031284;28;19917;-46
2023/01/26 11:28:42;;;;;;;;;;;;;;;1.69;100.00;102405.59;5030978;28;19917;-48
2023/01/26 11:31:13;;;;;;;;;;;;;;;1.83;100.00;102417.38;5050116;28;19917;-46
2023/01/26 11:33:39;;;;;;;;;;;;;;;1.94;100.00;102415.03;5050906;28;20026;-48
2023/01/26 11:36:09;;;;;;;;;;;;;;;2.03;100.00;102416.53;5050713;28;19999;-49
2023/01/26 11:38:37;;;;;;;;;;;;;;;2.09;100.00;102417.56;5050801;28;20065;-50
2023/01/26 11:41:11;;;;;;;;;;;;;;;2.12;100.00;102415.28;5050410;28;20448;-48
2023/01/26 11:43:48;;;;;;;;;;;;;;;2.16;100.00;102410.22;5050535;28;20355;-47
2023/01/26 11:46:40;;;;;;;;;;;;;;;2.26;100.00;102401.59;5050699;28;19989;-46
2023/01/26 11:49:05;;;;;;;;;;;;;;;2.37;100.00;102403.69;5050738;28;19959;-51
2023/01/26 11:51:49;;;;;;;;;;;;;;;2.46;100.00;102399.69;5050731;28;19959;-46
2023/01/26 11:54:36;;;;;;;;;;;;;;;2.53;100.00;102404.28;5050973;28;19917;-50
2023/01/26 11:57:03;;;;;;;;;;;;;;;2.61;100.00;102391.25;5050915;28;19955;-49
2023/01/26 11:59:34;;;;;;;;;;;;;;;2.69;100.00;102381.97;5050931;28;20352;-46
2023/01/26 12:01:59;;;;;;;;;;;;;;;2.80;100.00;102383.19;5048872;28;19913;-45
2023/01/26 12:04:24;;;;;;;;;;;;;;;2.90;100.00;102382.72;5050809;28;20307;-48
2023/01/26 12:07:08;;;;;;;;;;;;;;;2.99;100.00;102377.84;5050637;28;20306;-47
2023/01/26 12:09:37;;;;;;;;;;;;;;;3.09;100.00;102376.31;5050795;28;20002;-46
2023/01/26 12:12:12;;;;;;;;;;;;;;;3.19;100.00;102367.66;5050441;28;20011;-48
2023/01/26 12:14:43;;;;;;;;;;;;;;;3.36;100.00;102375.34;5050230;28;20359;-45
2023/01/26 12:17:19;;;;;;;;;;;;;;;3.56;100.00;102364.25;5049980;28;19925;-47
2023/01/26 12:19:51;;;;;;;;;;;;;;;3.70;100.00;102362.25;5050032;28;19947;-47
2023/01/26 12:22:19;;;;;;;;;;;;;;;3.79;100.00;102363.66;5049914;28;19924;-49
2023/01/26 12:24:56;;;;;;;;;;;;;;;3.91;100.00;102361.06;5050032;28;20483;-47
2023/01/26 12:27:28;;;;;;;;;;;;;;;4.01;100.00;102355.91;5050172;28;19925;-50
2023/01/26 12:30:00;;;;;;;;;;;;;;;4.11;100.00;102349.09;5049864;28;19916;-49
2023/01/26 12:32:26;;;;;;;;;;;;;;;4.27;100.00;102348.50;5049926;28;19927;-49
2023/01/26 12:34:51;;;;;;;;;;;;;;;4.45;100.00;102346.84;5049905;28;19916;-48
2023/01/26 12:37:19;;;;;;;;;;;;;;;4.58;100.00;102340.34;5049586;28;19923;-47
2023/01/26 12:39:47;;;;;;;;;;;;;;;4.69;100.00;102331.38;5049237;28;19923;-45
2023/01/26 12:42:12;;;;;;;;;;;;;;;4.78;100.00;102329.13;5049754;28;19917;-46
2023/01/26 12:44:42;;;;;;;;;;;;;;;4.82;100.00;102324.88;5049779;28;19923;-46
2023/01/26 12:47:25;;;;;;;;;;;;;;;4.86;100.00;102323.38;5049483;28;20088;-48
2023/01/26 12:50:11;;;;;;;;;;;;;;;4.87;100.00;102321.44;5049461;28;19978;-45
2023/01/26 12:52:36;;;;;;;;;;;;;;;4.97;100.00;102317.06;5049299;28;19920;-46
2023/01/26 12:55:05;;;;;;;;;;;;;;;5.07;100.00;102313.78;5049600;28;19913;-47
2023/01/26 12:57:37;;;;;;;;;;;;;;;5.14;100.00;102320.00;5049763;28;19916;-46
2023/01/26 13:00:04;;;;;;;;;;;;;;;5.25;100.00;102318.34;5049591;28;19913;-47
2023/01/26 13:02:33;;;;;;;;;;;;;;;5.28;100.00;102317.91;5047572;28;19917;-45
2023/01/26 13:04:59;;;;;;;;;;;;;;;5.30;100.00;102313.03;5049450;28;19919;-46
2023/01/26 13:07:30;;;;;;;;;;;;;;;5.28;100.00;102317.06;5051387;28;19913;-49
2023/01/26 13:10:13;;;;;;;;;;;;;;;5.33;100.00;102322.69;5050000;28;20395;-52